Time;durP1;ratioP1;P1;durP2;ratioP2;P2;SDS_P1;SDS_P2;PMS_P1;PMS_P2;Temp;Humidity;BMP_temperature;BMP_pressure;BME280_temperature;BME280_humidity;BME280_pressure;Samples;Min_cycle;Max_cycle;Signal;HPM_P1;HPM_P2
2022/04/22 00:00:30;;;;;;;3.25;2.55;;;11.50;99.90;;;;;;4952688;29;20027;-82
2022/04/22 00:02:59;;;;;;;3.55;2.60;;;11.40;99.90;;;;;;4935306;29;20059;-83
2022/04/22 00:05:24;;;;;;;3.35;2.72;;;11.40;99.90;;;;;;4952768;29;20030;-85
2022/04/22 00:07:50;;;;;;;2.78;2.08;;;11.40;99.90;;;;;;4952469;29;20031;-83
2022/04/22 00:10:19;;;;;;;2.33;2.13;;;11.50;99.90;;;;;;4952873;29;20082;-82
2022/04/22 00:12:45;;;;;;;2.50;2.30;;;11.50;99.90;;;;;;4952466;29;20051;-83
2022/04/22 00:15:13;;;;;;;3.40;2.35;;;11.50;99.90;;;;;;4952809;29;20023;-84
2022/04/22 00:17:40;;;;;;;3.83;2.65;;;11.50;99.90;;;;;;4938335;29;20028;-83
2022/04/22 00:20:07;;;;;;;3.33;2.67;;;11.40;99.90;;;;;;4955734;29;20043;-83
2022/04/22 00:22:40;;;;;;;2.97;2.75;;;11.40;99.90;;;;;;4941769;29;20040;-84
2022/04/22 00:25:08;;;;;;;3.42;2.60;;;11.40;99.90;;;;;;4941060;29;20458;-86
2022/04/22 00:27:34;;;;;;;3.17;2.20;;;11.30;99.90;;;;;;4954998;29;20058;-85
2022/04/22 00:29:59;;;;;;;2.50;2.30;;;11.40;99.90;;;;;;4954139;28;20605;-85
2022/04/22 00:32:25;;;;;;;2.70;2.50;;;11.40;99.90;;;;;;4955843;28;20428;-85
2022/04/22 00:34:51;;;;;;;5.32;2.53;;;11.40;99.90;;;;;;4956237;29;20545;-86
2022/04/22 00:37:16;;;;;;;3.45;2.60;;;11.40;99.90;;;;;;4956040;28;20118;-85
2022/04/22 00:39:42;;;;;;;2.40;2.20;;;11.40;99.90;;;;;;4955056;29;20035;-85
2022/04/22 00:42:10;;;;;;;2.17;1.98;;;11.40;99.90;;;;;;4954782;29;20027;-86
2022/04/22 00:44:37;;;;;;;2.42;2.22;;;11.40;99.90;;;;;;4956591;28;20030;-86
2022/04/22 00:47:03;;;;;;;3.20;2.40;;;11.40;99.90;;;;;;4955687;28;20716;-83
2022/04/22 00:49:29;;;;;;;3.25;2.30;;;11.40;99.90;;;;;;4956519;28;20027;-85
2022/04/22 00:51:55;;;;;;;2.42;1.90;;;11.40;99.90;;;;;;4953850;29;20509;-85
2022/04/22 00:54:21;;;;;;;3.88;2.20;;;11.30;99.90;;;;;;4956244;28;20097;-85
2022/04/22 00:56:50;;;;;;;1.90;1.80;;;11.40;99.90;;;;;;4953933;29;20043;-85
2022/04/22 00:59:16;;;;;;;2.85;2.03;;;11.40;99.90;;;;;;4955460;28;20019;-84
2022/04/22 01:01:42;;;;;;;2.25;2.00;;;11.40;99.90;;;;;;4954371;29;20070;-84
2022/04/22 01:10:08;;;;;;;2.30;2.10;;;11.30;99.90;;;;;;4881912;29;20039;-86
2022/04/22 01:12:34;;;;;;;3.40;2.40;;;11.40;99.90;;;;;;4931710;29;20027;-85
2022/04/22 01:15:00;;;;;;;3.15;2.10;;;11.40;99.90;;;;;;4955395;28;20030;-85
2022/04/22 01:17:26;;;;;;;2.30;2.10;;;11.40;99.90;;;;;;4954085;29;20039;-85
2022/04/22 01:19:53;;;;;;;2.10;1.90;;;11.30;99.90;;;;;;4955274;28;20505;-86
2022/04/22 01:22:19;;;;;;;3.30;1.85;;;11.30;99.90;;;;;;4953248;29;20049;-85
2022/04/22 01:25:14;;;;;;;3.58;2.10;;;11.30;99.90;;;;;;4955623;29;20061;-83
2022/04/22 01:27:40;;;;;;;2.42;2.17;;;11.20;99.90;;;;;;4925311;29;20036;-85
2022/04/22 01:30:06;;;;;;;3.17;2.22;;;11.30;99.90;;;;;;4946469;29;20027;-85
2022/04/22 01:32:32;;;;;;;3.47;1.70;;;11.20;99.90;;;;;;4937963;29;20046;-86
2022/04/22 01:34:58;;;;;;;2.40;1.90;;;11.20;99.90;;;;;;4937699;29;20027;-86
2022/04/22 01:37:24;;;;;;;2.85;2.03;;;11.20;99.90;;;;;;4937588;29;20047;-84
2022/04/22 01:39:50;;;;;;;3.03;2.15;;;11.20;99.90;;;;;;4954225;29;20066;-85
2022/04/22 01:42:21;;;;;;;1.98;1.77;;;11.20;99.90;;;;;;4952896;29;20127;-83
2022/04/22 01:44:49;;;;;;;2.20;1.98;;;11.30;99.90;;;;;;4937340;29;20030;-84
2022/04/22 01:47:15;;;;;;;2.17;1.73;;;11.30;99.90;;;;;;4936929;29;20031;-85
2022/04/22 01:49:41;;;;;;;2.80;1.95;;;11.40;99.90;;;;;;4954960;29;20031;-83
2022/04/22 01:52:08;;;;;;;3.22;1.83;;;11.40;99.90;;;;;;4954774;29;20035;-84
2022/04/22 01:54:33;;;;;;;2.53;1.75;;;11.40;99.90;;;;;;4937946;29;20077;-84
2022/04/22 01:56:59;;;;;;;4.05;2.25;;;11.40;99.90;;;;;;4954237;29;20641;-83
2022/04/22 01:59:25;;;;;;;2.40;1.98;;;11.50;99.90;;;;;;4955076;29;20517;-85
2022/04/22 02:01:50;;;;;;;2.17;1.70;;;11.50;99.90;;;;;;4937140;29;20043;-83
2022/04/22 02:04:16;;;;;;;2.17;1.98;;;11.60;99.90;;;;;;4955138;29;20031;-84
2022/04/22 02:06:42;;;;;;;4.82;2.33;;;11.60;99.90;;;;;;4953902;29;20054;-84
2022/04/22 02:09:07;;;;;;;2.75;1.90;;;11.60;99.90;;;;;;4937794;29;21004;-86
2022/04/22 02:11:33;;;;;;;3.60;1.85;;;11.60;99.90;;;;;;4936901;29;20467;-85
2022/04/22 02:13:59;;;;;;;1.70;1.60;;;11.60;99.90;;;;;;4954963;29;20023;-86
2022/04/22 02:16:24;;;;;;;2.20;1.88;;;11.60;99.90;;;;;;4953703;29;20511;-86
2022/04/22 02:18:51;;;;;;;2.10;1.88;;;11.50;99.90;;;;;;4936967;29;20482;-86
2022/04/22 02:21:17;;;;;;;2.03;1.83;;;11.40;99.90;;;;;;4936462;29;20074;-85
2022/04/22 02:23:43;;;;;;;1.92;1.75;;;11.30;99.90;;;;;;4953961;29;20039;-85
2022/04/22 02:26:17;;;;;;;2.20;2.00;;;11.30;99.90;;;;;;4953800;29;20058;-83
2022/04/22 02:28:43;;;;;;;2.72;1.85;;;11.30;99.90;;;;;;4953746;29;20019;-86
2022/04/22 02:31:11;;;;;;;4.15;2.13;;;11.30;99.90;;;;;;4953386;29;20049;-85
2022/04/22 02:33:39;;;;;;;2.42;2.22;;;11.30;99.90;;;;;;4954439;29;20025;-85
2022/04/22 02:36:06;;;;;;;2.78;2.30;;;11.20;99.90;;;;;;4936405;29;20502;-85
2022/04/22 02:38:33;;;;;;;2.95;2.10;;;11.30;99.90;;;;;;4936978;29;20030;-85
2022/04/22 02:46:31;;;;;;;2.33;2.13;;;11.30;99.90;;;;;;4953454;29;20598;-82
2022/04/22 02:48:58;;;;;;;2.17;2.03;;;11.30;99.90;;;;;;4954061;29;20023;-84
2022/04/22 02:51:25;;;;;;;2.80;2.60;;;11.30;99.90;;;;;;4953327;29;20110;-85
2022/04/22 02:53:52;;;;;;;2.75;2.22;;;11.40;99.90;;;;;;4936789;29;20501;-84
2022/04/22 02:56:20;;;;;;;3.45;2.72;;;11.40;99.90;;;;;;4953069;29;20486;-84
2022/04/22 02:58:46;;;;;;;2.40;2.20;;;11.40;99.90;;;;;;4944649;29;20460;-85
2022/04/22 03:01:15;;;;;;;3.65;2.33;;;11.50;99.90;;;;;;4947746;29;20098;-85
2022/04/22 03:03:44;;;;;;;2.72;2.53;;;11.50;99.90;;;;;;4954018;29;20395;-84
2022/04/22 03:06:10;;;;;;;2.63;2.42;;;11.50;99.90;;;;;;4936135;29;20031;-84
2022/04/22 03:08:36;;;;;;;2.83;2.33;;;11.50;99.90;;;;;;4953466;29;20509;-83
2022/04/22 03:11:03;;;;;;;2.92;2.50;;;11.60;99.90;;;;;;4953546;29;20038;-84
2022/04/22 03:13:30;;;;;;;3.20;2.90;;;11.60;99.90;;;;;;4953829;29;20027;-84
2022/04/22 03:15:58;;;;;;;2.67;2.42;;;11.50;99.90;;;;;;4953098;29;20024;-84
2022/04/22 03:18:23;;;;;;;2.70;2.50;;;11.60;99.90;;;;;;4936385;29;20031;-83
2022/04/22 03:20:49;;;;;;;3.78;2.70;;;11.60;99.90;;;;;;4952538;28;20577;-84
2022/04/22 03:23:15;;;;;;;4.47;2.38;;;11.60;99.90;;;;;;4953320;29;20059;-83
2022/04/22 03:25:41;;;;;;;2.92;2.72;;;11.60;99.90;;;;;;4953501;29;20027;-84
2022/04/22 03:28:07;;;;;;;5.30;3.28;;;11.60;99.90;;;;;;4932268;29;20040;-84
2022/04/22 03:30:37;;;;;;;3.10;2.80;;;11.70;99.90;;;;;;4945921;29;20410;-83
2022/04/22 03:33:03;;;;;;;4.45;2.78;;;11.70;99.90;;;;;;4936019;29;20044;-84
2022/04/22 03:35:29;;;;;;;4.43;3.55;;;11.70;99.90;;;;;;4953116;29;20166;-84
2022/04/22 03:37:56;;;;;;;3.50;3.20;;;11.60;99.90;;;;;;4952832;29;20478;-85
2022/04/22 03:40:23;;;;;;;7.03;4.20;;;11.60;99.90;;;;;;4935833;29;20089;-83
2022/04/22 03:42:49;;;;;;;7.28;3.90;;;11.70;99.90;;;;;;4953055;29;20394;-83
2022/04/22 03:45:14;;;;;;;4.65;3.88;;;11.70;99.90;;;;;;4936127;29;20054;-84
2022/04/22 03:47:40;;;;;;;5.72;4.80;;;11.60;99.90;;;;;;4952825;29;20615;-84
2022/04/22 03:50:06;;;;;;;5.05;4.53;;;11.60;99.90;;;;;;4923485;29;20037;-83
2022/04/22 03:52:32;;;;;;;6.78;5.35;;;11.50;99.90;;;;;;4952019;28;20039;-84
2022/04/22 03:54:58;;;;;;;7.68;6.25;;;11.50;99.90;;;;;;4935755;29;20094;-84
2022/04/22 04:00:08;;;;;;;8.38;6.38;;;11.50;99.90;;;;;;4953021;29;20027;-84
2022/04/22 04:02:35;;;;;;;13.60;6.85;;;11.40;99.90;;;;;;4952794;29;20157;-84
2022/04/22 04:05:01;;;;;;;8.43;6.63;;;11.40;99.90;;;;;;4935708;29;20023;-83
2022/04/22 04:07:27;;;;;;;8.90;6.85;;;11.40;99.90;;;;;;4935274;29;20122;-84
2022/04/22 04:18:37;;;;;;;8.88;6.40;;;11.30;99.90;;;;;;4875085;29;20102;-83
2022/04/22 04:23:50;;;;;;;8.48;5.80;;;11.20;99.90;;;;;;4923405;29;20089;-82
2022/04/22 04:26:20;;;;;;;8.70;6.00;;;11.20;99.90;;;;;;4950938;29;20046;-83
2022/04/22 04:28:49;;;;;;;8.00;6.03;;;11.10;99.90;;;;;;4952213;28;20027;-82
2022/04/22 04:31:38;;;;;;;6.43;5.55;;;11.20;99.90;;;;;;4950492;29;20062;-83
2022/04/22 04:34:03;;;;;;;7.68;5.32;;;11.10;99.90;;;;;;4951646;29;20034;-83
2022/04/22 04:36:35;;;;;;;5.85;4.38;;;11.10;99.90;;;;;;4950613;29;20031;-83
2022/04/22 04:39:03;;;;;;;5.22;4.55;;;11.10;99.90;;;;;;4951426;29;20050;-82
2022/04/22 04:41:29;;;;;;;5.13;4.10;;;11.00;99.90;;;;;;4952149;28;20090;-83
2022/04/22 04:43:55;;;;;;;7.78;4.30;;;10.90;99.90;;;;;;4952602;29;20035;-83
2022/04/22 04:46:21;;;;;;;6.28;4.07;;;10.90;99.90;;;;;;4952117;29;20028;-83
2022/04/22 04:48:46;;;;;;;8.82;4.72;;;10.90;99.90;;;;;;4951419;29;20015;-84
2022/04/22 04:51:12;;;;;;;5.95;3.63;;;10.80;99.90;;;;;;4952016;29;20026;-83
2022/04/22 04:53:38;;;;;;;5.40;3.40;;;10.80;99.90;;;;;;4948230;29;20439;-84
2022/04/22 04:56:08;;;;;;;4.72;4.03;;;10.70;99.90;;;;;;4943993;29;20035;-83
2022/04/22 04:58:39;;;;;;;3.80;3.40;;;10.70;99.90;;;;;;4948043;29;20020;-84
2022/04/22 05:01:08;;;;;;;3.42;3.13;;;10.70;99.90;;;;;;4950766;29;20038;-83
2022/04/22 05:03:33;;;;;;;3.38;3.08;;;10.70;99.90;;;;;;4954892;28;20027;-83
2022/04/22 05:05:59;;;;;;;2.50;2.20;;;10.70;99.90;;;;;;4954105;29;20138;-82
2022/04/22 05:08:30;;;;;;;2.60;2.40;;;10.70;99.90;;;;;;4955735;28;20376;-83
2022/04/22 05:10:55;;;;;;;3.20;2.30;;;10.80;99.90;;;;;;4954069;29;20522;-82
2022/04/22 05:13:22;;;;;;;3.78;1.85;;;10.80;99.90;;;;;;4953291;29;20122;-83
2022/04/22 05:15:50;;;;;;;3.00;1.90;;;10.90;99.90;;;;;;4953738;29;20106;-83
2022/04/22 05:18:18;;;;;;;1.95;1.70;;;10.90;99.90;;;;;;4953952;29;20031;-84
2022/04/22 05:20:47;;;;;;;2.08;1.90;;;10.90;99.90;;;;;;4955254;28;20027;-83
2022/04/22 05:23:13;;;;;;;2.15;1.95;;;11.00;99.90;;;;;;4954476;29;20533;-85
2022/04/22 05:25:38;;;;;;;2.30;2.10;;;11.00;99.90;;;;;;4955248;28;20114;-82
2022/04/22 05:28:10;;;;;;;2.15;1.92;;;11.00;99.90;;;;;;4954284;29;20550;-84
2022/04/22 05:33:20;;;;;;;1.70;1.60;;;11.10;99.90;;;;;;4935233;29;20047;-83
2022/04/22 05:35:46;;;;;;;1.70;1.50;;;11.10;99.90;;;;;;4934288;29;20391;-83
2022/04/22 05:38:14;;;;;;;4.05;1.38;;;11.10;99.90;;;;;;4935055;29;20498;-84
2022/04/22 05:40:40;;;;;;;4.13;1.77;;;11.10;99.90;;;;;;4934072;29;20611;-83
2022/04/22 05:43:07;;;;;;;3.00;1.60;;;11.20;99.90;;;;;;4935235;29;20019;-84
2022/04/22 05:45:35;;;;;;;1.67;1.58;;;11.20;99.90;;;;;;4934675;29;20511;-84
2022/04/22 05:48:01;;;;;;;1.80;1.70;;;11.20;99.90;;;;;;4935888;29;20032;-84
2022/04/22 05:50:27;;;;;;;1.45;1.35;;;11.30;99.90;;;;;;4935657;29;20039;-82
2022/04/22 05:52:58;;;;;;;1.42;1.33;;;11.20;99.90;;;;;;4935620;29;20107;-83
2022/04/22 05:55:26;;;;;;;2.42;1.27;;;11.20;99.90;;;;;;4935608;29;20495;-83
2022/04/22 05:57:53;;;;;;;2.00;1.60;;;11.20;99.90;;;;;;4934967;29;20435;-84
2022/04/22 06:00:24;;;;;;;1.35;1.20;;;11.20;99.90;;;;;;4935481;29;20060;-83
2022/04/22 06:02:50;;;;;;;3.45;1.70;;;11.20;99.90;;;;;;4934313;29;20060;-84
2022/04/22 06:05:20;;;;;;;1.65;1.55;;;11.10;99.90;;;;;;4934387;29;20118;-83
2022/04/22 06:07:46;;;;;;;1.30;1.15;;;11.20;99.90;;;;;;4933615;29;20424;-82
2022/04/22 06:10:32;;;;;;;1.58;1.48;;;11.10;99.90;;;;;;4934484;29;20122;-83
2022/04/22 06:13:01;;;;;;;2.30;1.30;;;11.20;99.90;;;;;;4935557;29;20035;-83
2022/04/22 06:15:31;;;;;;;1.85;1.20;;;11.10;99.90;;;;;;4934594;29;20032;-83
2022/04/22 06:17:58;;;;;;;3.53;1.23;;;11.00;99.90;;;;;;4935236;29;20123;-84
2022/04/22 06:20:24;;;;;;;1.95;1.15;;;11.00;99.90;;;;;;4934873;29;20020;-83
2022/04/22 06:22:50;;;;;;;0.90;0.90;;;10.90;99.90;;;;;;4934833;29;20051;-81
2022/04/22 06:25:15;;;;;;;1.50;1.20;;;10.80;99.90;;;;;;4926541;29;20106;-83
2022/04/22 06:27:43;;;;;;;1.48;1.38;;;10.80;99.90;;;;;;4935190;29;20055;-88
2022/04/22 06:30:17;;;;;;;1.63;1.30;;;10.80;99.90;;;;;;4930001;29;20039;-85
2022/04/22 06:32:45;;;;;;;1.15;1.05;;;10.80;99.90;;;;;;4934494;29;20122;-83
2022/04/22 06:35:13;;;;;;;1.65;1.10;;;10.80;99.90;;;;;;4918111;29;20094;-83
2022/04/22 06:37:43;;;;;;;1.30;1.00;;;10.80;99.90;;;;;;4929189;29;20038;-86
2022/04/22 06:45:47;;;;;;;1.25;0.90;;;10.80;99.90;;;;;;4934157;29;20140;-84
2022/04/22 06:48:19;;;;;;;0.93;0.90;;;10.90;99.90;;;;;;4932256;29;20035;-83
2022/04/22 06:50:47;;;;;;;2.47;1.02;;;11.00;99.90;;;;;;4932455;29;20403;-82
2022/04/22 06:53:15;;;;;;;0.80;0.70;;;11.00;99.90;;;;;;4934479;29;20036;-83
2022/04/22 06:55:41;;;;;;;1.48;1.13;;;11.00;99.90;;;;;;4932310;29;20081;-83
2022/04/22 06:58:10;;;;;;;1.98;0.77;;;11.00;99.90;;;;;;4932744;29;20133;-82
2022/04/22 07:00:36;;;;;;;0.88;0.88;;;11.00;99.90;;;;;;4933527;29;20032;-83
2022/04/22 07:03:02;;;;;;;0.70;0.70;;;11.00;99.90;;;;;;4932147;29;20661;-82
2022/04/22 07:05:28;;;;;;;0.65;0.65;;;11.10;99.90;;;;;;4933602;29;20019;-82
2022/04/22 07:07:54;;;;;;;0.80;0.80;;;11.20;99.90;;;;;;4929868;29;20032;-82
2022/04/22 07:10:22;;;;;;;1.95;0.80;;;11.30;99.90;;;;;;4926620;29;20039;-82
2022/04/22 07:12:48;;;;;;;0.63;0.63;;;11.40;99.90;;;;;;4932909;29;20030;-82
2022/04/22 07:15:17;;;;;;;0.80;0.75;;;11.50;99.90;;;;;;4928092;29;20038;-82
2022/04/22 07:17:43;;;;;;;0.82;0.77;;;11.70;99.90;;;;;;4928386;29;20046;-82
2022/04/22 07:20:10;;;;;;;1.45;1.00;;;11.70;99.90;;;;;;4927731;29;20024;-83
2022/04/22 07:22:41;;;;;;;3.05;0.98;;;11.90;99.90;;;;;;4929244;29;20253;-83
2022/04/22 07:25:08;;;;;;;0.70;0.70;;;12.00;99.90;;;;;;4929360;29;20407;-84
2022/04/22 07:27:37;;;;;;;1.48;0.75;;;12.00;99.90;;;;;;4931469;29;20031;-82
2022/04/22 07:30:11;;;;;;;0.75;0.75;;;12.10;99.90;;;;;;4932045;29;20027;-82
2022/04/22 07:32:38;;;;;;;1.00;0.90;;;12.10;99.90;;;;;;4929153;29;20043;-83
2022/04/22 07:35:11;;;;;;;1.05;0.95;;;12.20;99.90;;;;;;4933930;29;20034;-82
2022/04/22 07:37:38;;;;;;;2.58;0.88;;;12.20;99.90;;;;;;4914048;29;20102;-82
2022/04/22 07:40:04;;;;;;;1.50;0.88;;;12.20;99.90;;;;;;4935205;29;20440;-82
2022/04/22 07:42:33;;;;;;;1.00;1.00;;;12.20;99.90;;;;;;4915324;29;20513;-83
2022/04/22 07:47:49;;;;;;;0.90;0.85;;;12.20;99.90;;;;;;4933199;29;20042;-82
2022/04/22 07:50:18;;;;;;;0.70;0.70;;;12.20;99.90;;;;;;4916956;29;20116;-82
2022/04/22 07:52:45;;;;;;;0.70;0.70;;;12.30;99.90;;;;;;4916114;29;20032;-84
2022/04/22 07:55:15;;;;;;;2.97;0.70;;;12.30;99.90;;;;;;4916857;29;20448;-82
2022/04/22 07:57:42;;;;;;;0.68;0.63;;;12.30;99.90;;;;;;4933455;29;20043;-81
2022/04/22 08:00:11;;;;;;;0.45;0.45;;;12.30;99.90;;;;;;4916251;29;20034;-83
2022/04/22 08:02:40;;;;;;;0.60;0.60;;;12.30;99.90;;;;;;4930632;29;20028;-83
2022/04/22 08:05:11;;;;;;;2.35;0.70;;;12.40;99.90;;;;;;4910283;29;20028;-82
2022/04/22 08:07:38;;;;;;;1.05;0.40;;;12.60;99.90;;;;;;4912225;29;20095;-81
2022/04/22 08:10:04;;;;;;;1.80;0.40;;;12.60;99.90;;;;;;4912216;29;20034;-82
2022/04/22 08:12:30;;;;;;;1.13;0.50;;;12.80;99.90;;;;;;4915757;29;20032;-83
2022/04/22 08:14:58;;;;;;;2.65;0.50;;;12.80;99.90;;;;;;4931777;29;20118;-83
2022/04/22 08:17:23;;;;;;;0.40;0.40;;;12.90;99.90;;;;;;4916266;29;20454;-82
2022/04/22 08:19:49;;;;;;;3.92;0.60;;;13.00;99.90;;;;;;4933129;29;20032;-81
2022/04/22 08:22:15;;;;;;;0.43;0.43;;;13.00;99.90;;;;;;4933100;29;20451;-82
2022/04/22 08:24:41;;;;;;;1.27;0.60;;;13.10;99.90;;;;;;4932932;29;20024;-82
2022/04/22 08:27:07;;;;;;;0.43;0.43;;;13.10;99.90;;;;;;4932410;29;20059;-83
2022/04/22 08:29:33;;;;;;;0.45;0.30;;;13.30;99.90;;;;;;4932695;29;20028;-83
2022/04/22 08:31:59;;;;;;;0.43;0.40;;;13.30;99.90;;;;;;4932511;29;20032;-83
2022/04/22 08:34:25;;;;;;;0.40;0.40;;;13.40;99.90;;;;;;4910044;29;20028;-82
2022/04/22 08:36:50;;;;;;;0.43;0.30;;;13.50;99.90;;;;;;4914991;29;20036;-83
2022/04/22 08:39:16;;;;;;;1.15;0.52;;;13.70;99.90;;;;;;4918139;29;20110;-82
2022/04/22 08:41:42;;;;;;;0.60;0.60;;;13.70;99.90;;;;;;4936030;29;20035;-83
2022/04/22 08:44:13;;;;;;;0.60;0.52;;;13.70;99.90;;;;;;4936062;29;20023;-82
2022/04/22 08:52:12;;;;;;;2.83;0.85;;;13.40;99.90;;;;;;4935418;29;20395;-82
2022/04/22 08:54:46;;;;;;;0.90;0.90;;;13.40;99.90;;;;;;4935492;29;20027;-82
2022/04/22 08:57:12;;;;;;;1.00;1.00;;;13.40;99.90;;;;;;4936375;29;20032;-82
2022/04/22 08:59:38;;;;;;;2.92;1.40;;;13.30;99.90;;;;;;4935384;29;20019;-84
2022/04/22 09:02:04;;;;;;;1.45;1.35;;;13.20;99.90;;;;;;4918762;29;20487;-83
2022/04/22 09:04:30;;;;;;;1.50;1.40;;;13.20;99.90;;;;;;4936652;29;20476;-82
2022/04/22 09:06:56;;;;;;;1.35;1.13;;;13.20;99.90;;;;;;4928831;29;20031;-83
2022/04/22 09:09:24;;;;;;;1.40;1.30;;;13.20;99.90;;;;;;4931753;29;20016;-82
2022/04/22 09:11:51;;;;;;;2.13;1.42;;;13.20;99.90;;;;;;4916973;29;20032;-82
2022/04/22 09:14:19;;;;;;;3.92;1.80;;;13.10;99.90;;;;;;4930420;29;20487;-82
2022/04/22 09:16:45;;;;;;;2.38;1.83;;;13.10;99.90;;;;;;4915860;29;20130;-82
2022/04/22 09:19:11;;;;;;;2.95;1.90;;;13.00;99.90;;;;;;4934771;29;20528;-83
2022/04/22 09:21:38;;;;;;;2.25;2.05;;;13.00;99.90;;;;;;4913711;29;20114;-82
2022/04/22 09:24:14;;;;;;;3.13;2.90;;;13.10;99.90;;;;;;4919886;29;20044;-83
2022/04/22 09:26:40;;;;;;;3.30;2.97;;;13.10;99.90;;;;;;4929969;29;20046;-81
2022/04/22 09:29:10;;;;;;;3.63;3.33;;;13.20;99.90;;;;;;4930842;29;20534;-82
2022/04/22 09:31:46;;;;;;;5.47;4.05;;;13.20;99.90;;;;;;4932061;29;20036;-83
2022/04/22 09:34:12;;;;;;;7.55;3.80;;;13.40;99.90;;;;;;4946193;29;20475;-82
2022/04/22 09:45:07;;;;;;;4.45;3.25;;;14.10;99.90;;;;;;4933643;29;20124;-82
2022/04/22 09:47:35;;;;;;;4.82;4.05;;;14.10;99.90;;;;;;4935377;29;20523;-82
2022/04/22 09:50:10;;;;;;;4.30;3.90;;;14.00;99.90;;;;;;4931499;29;20110;-82
2022/04/22 09:52:36;;;;;;;4.15;3.53;;;13.90;99.90;;;;;;4932075;29;20019;-82
2022/04/22 09:55:04;;;;;;;4.20;3.78;;;13.80;99.90;;;;;;4925275;29;20036;-82
2022/04/22 09:57:49;;;;;;;4.68;4.20;;;13.80;99.90;;;;;;4934047;29;20098;-81
2022/04/22 10:00:23;;;;;;;3.92;3.55;;;14.00;99.90;;;;;;4931367;29;20027;-82
2022/04/22 10:02:50;;;;;;;5.43;3.83;;;14.50;99.90;;;;;;4934805;29;20505;-82
2022/04/22 10:05:21;;;;;;;4.82;3.50;;;14.90;99.90;;;;;;4934609;29;20086;-82
2022/04/22 10:07:55;;;;;;;5.00;3.85;;;15.20;99.90;;;;;;4933041;29;20020;-82
2022/04/22 10:10:29;;;;;;;3.70;3.40;;;15.50;99.90;;;;;;4935410;29;20032;-82
2022/04/22 10:12:59;;;;;;;5.30;3.70;;;15.30;99.90;;;;;;4934803;29;20020;-83
2022/04/22 10:15:32;;;;;;;4.85;4.10;;;15.10;99.90;;;;;;4933292;29;20488;-81
2022/04/22 10:17:59;;;;;;;5.35;4.55;;;14.90;99.90;;;;;;4935421;29;20122;-86
2022/04/22 10:20:26;;;;;;;5.80;4.70;;;14.80;99.90;;;;;;4930317;29;20051;-81
2022/04/22 10:22:52;;;;;;;5.03;4.20;;;14.60;99.90;;;;;;4934711;29;20040;-81
2022/04/22 10:25:19;;;;;;;5.82;4.53;;;14.50;99.90;;;;;;4935436;29;20111;-80
2022/04/22 10:27:46;;;;;;;6.18;4.65;;;14.20;99.90;;;;;;4936556;29;20039;-79
2022/04/22 10:30:15;;;;;;;5.28;4.75;;;14.00;99.90;;;;;;4932094;29;20027;-79
2022/04/22 10:32:45;;;;;;;4.68;4.28;;;13.90;99.90;;;;;;4919669;29;20395;-83
2022/04/22 10:35:13;;;;;;;5.20;4.35;;;13.90;99.90;;;;;;4921056;29;20475;-81
2022/04/22 10:37:41;;;;;;;5.20;4.18;;;13.90;99.90;;;;;;4936147;29;20047;-78
2022/04/22 10:40:20;;;;;;;3.70;3.40;;;13.90;99.90;;;;;;4919932;29;20175;-80
2022/04/22 10:42:47;;;;;;;6.70;3.55;;;13.90;99.90;;;;;;4933334;29;20070;-83
2022/04/22 10:47:57;;;;;;;4.70;3.35;;;13.90;99.90;;;;;;4934596;29;20079;-84
2022/04/22 10:50:25;;;;;;;3.85;3.47;;;13.90;99.90;;;;;;4934523;29;20031;-78
2022/04/22 10:53:03;;;;;;;5.97;3.22;;;13.90;99.90;;;;;;4935149;29;20047;-87
2022/04/22 10:55:49;;;;;;;4.13;3.00;;;13.80;99.90;;;;;;4918650;29;20483;-81
2022/04/22 10:58:23;;;;;;;3.80;3.15;;;13.80;99.90;;;;;;4932241;29;20051;-79
2022/04/22 11:00:49;;;;;;;4.10;3.22;;;13.70;99.90;;;;;;4916343;29;20036;-80
2022/04/22 11:03:16;;;;;;;4.60;2.90;;;13.70;99.90;;;;;;4932684;29;20074;-79
2022/04/22 11:05:56;;;;;;;3.60;2.40;;;13.60;99.90;;;;;;4934151;29;20024;-79
2022/04/22 11:08:25;;;;;;;2.55;2.35;;;13.80;99.90;;;;;;4932580;29;20035;-82
2022/04/22 11:10:53;;;;;;;6.05;2.55;;;13.50;99.90;;;;;;4916110;29;20542;-81
2022/04/22 11:13:50;;;;;;;2.55;2.35;;;13.40;99.90;;;;;;4933205;29;20034;-81
2022/04/22 11:16:22;;;;;;;2.92;2.22;;;13.50;99.90;;;;;;4933718;29;20549;-81
2022/04/22 11:19:19;;;;;;;3.42;2.88;;;13.50;99.90;;;;;;4933821;29;20079;-80
2022/04/22 11:21:58;;;;;;;2.75;2.17;;;13.40;99.90;;;;;;4930746;29;20028;-81
2022/04/22 11:24:29;;;;;;;2.85;2.65;;;13.60;99.90;;;;;;4932696;29;20042;-80
2022/04/22 11:27:11;;;;;;;2.45;1.92;;;13.60;99.90;;;;;;4916307;29;20032;-81
2022/04/22 11:29:37;;;;;;;5.03;3.20;;;13.70;99.90;;;;;;4916905;29;20391;-81
2022/04/22 11:32:23;;;;;;;3.90;3.13;;;13.80;99.90;;;;;;4933599;29;20067;-82
2022/04/22 11:35:06;;;;;;;7.10;3.20;;;14.00;99.90;;;;;;4933025;29;20043;-80
2022/04/22 11:37:33;;;;;;;19.77;14.57;;;14.00;99.90;;;;;;4933210;29;20043;-81
2022/04/22 11:39:59;;;;;;;6.03;4.80;;;14.20;99.90;;;;;;4933775;29;20028;-81
2022/04/22 11:42:25;;;;;;;4.22;3.17;;;14.30;99.90;;;;;;4933380;29;20035;-81
2022/04/22 11:45:04;;;;;;;4.68;2.55;;;14.40;99.90;;;;;;4916937;29;20104;-81
2022/04/22 11:47:30;;;;;;;6.18;4.40;;;14.50;99.90;;;;;;4911735;29;20032;-82
2022/04/22 11:49:56;;;;;;;4.45;2.28;;;14.60;99.90;;;;;;4933301;29;20027;-81
2022/04/22 11:52:23;;;;;;;3.65;2.00;;;14.50;99.90;;;;;;4932776;29;20032;-81
2022/04/22 11:54:49;;;;;;;1.67;1.58;;;14.40;99.90;;;;;;4916106;29;20042;-81
2022/04/22 11:57:19;;;;;;;4.57;1.40;;;14.60;99.90;;;;;;4932972;29;20083;-81
2022/04/22 12:05:32;;;;;;;2.22;1.55;;;14.70;99.90;;;;;;4933762;29;20032;-81
2022/04/22 12:05:35;;;;;;;1.40;1.30;;;15.00;99.90;;;;;;4826383;29;20074;-81
2022/04/22 12:08:04;;;;;;;2.40;1.25;;;15.10;99.90;;;;;;4838257;29;20036;-81
2022/04/22 12:10:29;;;;;;;1.42;1.05;;;15.10;99.90;;;;;;4884625;29;20040;-81
2022/04/22 12:13:01;;;;;;;1.17;1.08;;;15.10;99.90;;;;;;4934784;29;20031;-82
2022/04/22 12:15:27;;;;;;;1.85;1.33;;;15.30;99.90;;;;;;4937721;29;20102;-82
2022/04/22 12:17:53;;;;;;;3.60;1.67;;;15.40;99.90;;;;;;4937306;29;20707;-82
2022/04/22 12:20:20;;;;;;;2.13;1.55;;;15.60;99.90;;;;;;4937478;29;20059;-81
2022/04/22 12:22:49;;;;;;;3.45;1.38;;;16.00;99.90;;;;;;4937094;29;20111;-81
2022/04/22 12:25:16;;;;;;;6.70;1.40;;;16.10;99.90;;;;;;4937236;29;20043;-81
2022/04/22 12:27:43;;;;;;;5.70;1.23;;;16.50;99.90;;;;;;4936926;29;20028;-81
2022/04/22 12:30:11;;;;;;;2.45;1.10;;;17.10;99.90;;;;;;4937275;29;20063;-81
2022/04/22 12:32:40;;;;;;;1.20;1.10;;;17.70;99.90;;;;;;4934452;29;20032;-82
2022/04/22 12:35:15;;;;;;;2.05;1.70;;;18.30;99.90;;;;;;4919890;29;20024;-81
2022/04/22 12:37:52;;;;;;;2.15;1.40;;;18.80;99.90;;;;;;4934470;29;20040;-82
2022/04/22 12:40:19;;;;;;;2.05;1.20;;;19.10;99.90;;;;;;4937029;29;20039;-81
2022/04/22 12:42:45;;;;;;;1.33;1.23;;;19.70;99.90;;;;;;4936791;29;20035;-81
2022/04/22 12:54:06;;;;;;;0.88;0.60;;;23.10;99.90;;;;;;4936076;29;20147;-81
2022/04/22 12:56:33;;;;;;;1.33;0.85;;;22.90;99.90;;;;;;4936282;29;20032;-82
2022/04/22 12:58:59;;;;;;;1.00;1.00;;;23.00;99.90;;;;;;4936973;29;20567;-81
2022/04/22 13:01:36;;;;;;;1.33;0.80;;;23.50;99.90;;;;;;4936139;29;20027;-81
2022/04/22 13:04:03;;;;;;;1.40;1.20;;;24.60;99.90;;;;;;4919771;29;20028;-81
2022/04/22 13:06:55;;;;;;;0.80;0.73;;;25.80;99.90;;;;;;4919062;29;20036;-81
2022/04/22 13:09:22;;;;;;;1.05;0.95;;;27.10;99.90;;;;;;4911907;29;20027;-80
2022/04/22 13:11:51;;;;;;;1.92;1.13;;;27.70;99.90;;;;;;4918722;29;20035;-81
2022/04/22 13:14:16;;;;;;;4.80;1.23;;;29.50;99.90;;;;;;4919858;29;20123;-81
2022/04/22 13:16:43;;;;;;;1.33;0.68;;;31.40;99.90;;;;;;4935701;29;20482;-81
2022/04/22 13:19:11;;;;;;;2.42;1.00;;;32.50;99.90;;;;;;4936352;29;20031;-81
2022/04/22 13:21:37;;;;;;;3.28;1.42;;;32.50;96.20;;;;;;4935914;29;20024;-81
2022/04/22 13:24:03;;;;;;;2.60;1.02;;;32.40;96.80;;;;;;4935242;29;20043;-80
2022/04/22 13:26:28;;;;;;;3.40;1.27;;;33.20;93.90;;;;;;4935636;29;20051;-81
2022/04/22 13:28:55;;;;;;;3.33;1.00;;;32.80;91.60;;;;;;4936416;29;20095;-82
2022/04/22 13:31:22;;;;;;;3.20;1.00;;;30.30;92.20;;;;;;4935650;29;20027;-81
2022/04/22 13:33:48;;;;;;;3.63;1.30;;;27.80;94.50;;;;;;4919186;29;20027;-81
2022/04/22 13:36:15;;;;;;;3.75;1.33;;;26.30;97.30;;;;;;4935356;29;20466;-81
2022/04/22 13:38:43;;;;;;;2.67;1.13;;;25.20;97.40;;;;;;4936261;29;20075;-81
2022/04/22 13:41:09;;;;;;;2.40;1.40;;;24.20;99.00;;;;;;4935451;29;20027;-81
2022/04/22 13:43:35;;;;;;;5.38;2.05;;;23.20;99.90;;;;;;4936195;29;20024;-81
2022/04/22 13:54:17;;;;;;;8.90;3.58;;;17.30;99.90;;;;;;4936187;29;20062;-80
2022/04/22 13:56:43;;;;;;;6.72;3.88;;;16.40;99.90;;;;;;4917914;29;20042;-81
2022/04/22 13:59:09;;;;;;;5.03;3.20;;;16.10;99.90;;;;;;4936021;29;20039;-80
2022/04/22 14:01:36;;;;;;;6.13;3.05;;;16.00;99.90;;;;;;4935086;29;20028;-81
2022/04/22 14:04:02;;;;;;;5.45;3.40;;;15.90;99.90;;;;;;4935659;29;20063;-81